Time;durP1;ratioP1;P1;durP2;ratioP2;P2;SDS_P1;SDS_P2;PMS_P1;PMS_P2;Temp;Humidity;BMP_temperature;BMP_pressure;BME280_temperature;BME280_humidity;BME280_pressure;Samples;Min_cycle;Max_cycle;Signal;HPM_P1;HPM_P2
2022/01/27 00:00:42;;;;;;;45.73;24.83;;;;;;;2.00;85.13;96528.16;4340858;32;20285;-55
2022/01/27 00:03:33;;;;;;;40.30;24.90;;;;;;;1.91;85.72;96534.63;4333003;32;20277;-55
2022/01/27 00:06:06;;;;;;;42.47;26.27;;;;;;;1.98;85.16;96530.19;4341244;32;20281;-57
2022/01/27 00:08:44;;;;;;;41.43;25.80;;;;;;;2.10;84.93;96534.75;4373176;32;20272;-56
2022/01/27 00:11:14;;;;;;;41.07;25.30;;;;;;;2.05;85.12;96533.56;4365617;32;20285;-55
2022/01/27 00:16:22;;;;;;;39.87;25.00;;;;;;;2.13;84.92;96526.47;4358894;32;20320;-55
2022/01/27 00:18:50;;;;;;;39.07;24.73;;;;;;;2.16;84.82;96528.69;4346305;32;20194;-55
2022/01/27 00:21:19;;;;;;;41.07;24.33;;;;;;;2.20;84.83;96527.25;4356288;32;20288;-56
2022/01/27 00:23:45;;;;;;;38.53;25.30;;;;;;;2.20;84.76;96524.63;4366373;32;20316;-54
2022/01/27 00:26:12;;;;;;;41.80;25.40;;;;;;;2.19;84.65;96523.81;4346298;32;20281;-57
2022/01/27 00:28:44;;;;;;;41.57;25.87;;;;;;;2.23;84.71;96519.78;4359652;32;20185;-58
2022/01/27 00:31:25;;;;;;;38.70;25.53;;;;;;;2.24;84.64;96512.72;4379472;32;20354;-57
2022/01/27 00:33:51;;;;;;;41.80;24.40;;;;;;;2.11;84.63;96505.75;4367822;32;20381;-56
2022/01/27 00:36:18;;;;;;;38.97;25.77;;;;;;;2.17;84.83;96509.34;4371431;32;20276;-55
2022/01/27 00:38:44;;;;;;;39.17;25.90;;;;;;;1.92;85.23;96504.03;4379117;32;20309;-54
2022/01/27 00:41:13;;;;;;;39.93;25.30;;;;;;;2.08;85.39;96514.00;4371033;32;20291;-53
2022/01/27 00:43:39;;;;;;;42.53;25.93;;;;;;;2.04;85.28;96521.50;4374707;32;20280;-55
2022/01/27 00:46:12;;;;;;;41.43;26.33;;;;;;;1.88;85.81;96521.97;4371122;32;20311;-56
2022/01/27 00:48:44;;;;;;;40.30;23.57;;;;;;;1.80;85.84;96524.03;4370824;32;20189;-55
2022/01/27 00:51:12;;;;;;;39.87;25.47;;;;;;;1.91;85.95;96526.78;4351673;32;20353;-54
2022/01/27 00:53:49;;;;;;;40.83;25.10;;;;;;;1.90;85.59;96529.59;4363219;32;20284;-55
2022/01/27 00:56:33;;;;;;;37.83;25.50;;;;;;;2.03;84.70;96530.38;4330384;32;20330;-55
2022/01/27 00:59:22;;;;;;;38.27;24.40;;;;;;;1.98;84.88;96522.34;4361572;32;20285;-52
2022/01/27 01:01:58;;;;;;;42.55;26.90;;;;;;;1.91;85.00;96521.56;4364702;32;20275;-53
2022/01/27 01:04:32;;;;;;;38.17;25.87;;;;;;;1.83;85.32;96523.63;4383040;32;20226;-56
2022/01/27 01:06:58;;;;;;;36.73;23.50;;;;;;;1.86;85.32;96523.22;4361636;32;20363;-55
2022/01/27 01:14:53;;;;;;;39.85;25.42;;;;;;;1.73;85.32;96522.25;4381284;32;20212;-55
2022/01/27 01:31:09;;;;;;;41.07;25.43;;;;;;;1.46;86.25;96506.84;4356553;32;20288;-56
2022/01/27 01:33:38;;;;;;;38.65;24.80;;;;;;;1.48;85.93;96504.84;4355963;32;20277;-55
2022/01/27 01:36:26;;;;;;;37.95;24.42;;;;;;;1.27;86.94;96503.28;4358831;32;20181;-55
2022/01/27 01:38:51;;;;;;;36.25;25.10;;;;;;;1.38;87.05;96502.69;4311472;32;20283;-53
2022/01/27 01:41:21;;;;;;;36.37;23.90;;;;;;;1.43;86.51;96499.44;4352953;32;20207;-55
2022/01/27 01:43:46;;;;;;;38.75;25.27;;;;;;;1.62;86.14;96511.63;4350334;32;20189;-56
2022/01/27 01:46:11;;;;;;;37.70;23.87;;;;;;;1.68;85.25;96522.06;4374953;32;20211;-55
2022/01/27 01:48:37;;;;;;;37.50;24.67;;;;;;;1.78;85.33;96519.00;4346003;32;20197;-58
2022/01/27 01:51:06;;;;;;;41.47;26.13;;;;;;;1.69;85.28;96525.47;4366627;32;20235;-56
2022/01/27 01:53:32;;;;;;;42.20;25.87;;;;;;;1.67;85.66;96517.03;4362611;32;20211;-55
2022/01/27 01:55:58;;;;;;;36.97;24.10;;;;;;;1.84;85.01;96526.03;4351155;32;20367;-54
2022/01/27 01:58:25;;;;;;;38.57;24.30;;;;;;;1.77;85.03;96522.62;4353975;32;20199;-55
2022/01/27 02:00:50;;;;;;;36.23;24.53;;;;;;;1.81;85.05;96513.38;4365966;32;20200;-53
2022/01/27 02:03:17;;;;;;;35.27;24.77;;;;;;;1.78;85.02;96505.13;4364169;32;20288;-52
2022/01/27 02:05:49;;;;;;;35.80;25.57;;;;;;;1.83;84.58;96505.31;4380239;32;20256;-56
2022/01/27 02:19:24;;;;;;;34.27;23.30;;;;;;;1.28;86.09;96503.09;4346657;32;20321;-55
2022/01/27 02:22:03;;;;;;;37.90;25.47;;;;;;;1.66;85.33;96503.16;4358955;32;20337;-53
2022/01/27 02:24:33;;;;;;;37.23;23.63;;;;;;;1.51;84.85;96504.44;4343921;32;20276;-54
2022/01/27 02:27:02;;;;;;;39.57;25.70;;;;;;;1.67;85.08;96498.72;4368894;32;20296;-51
2022/01/27 02:29:28;;;;;;;38.67;24.90;;;;;;;1.32;85.91;96488.59;4346690;32;20334;-55
2022/01/27 02:31:57;;;;;;;35.83;24.47;;;;;;;1.53;85.60;96491.97;4350471;32;20303;-54
2022/01/27 02:34:24;;;;;;;37.13;24.27;;;;;;;1.46;85.12;96481.50;4364083;32;20295;-55
2022/01/27 02:36:50;;;;;;;40.40;25.23;;;;;;;1.56;85.55;96481.88;4365681;32;20381;-54
2022/01/27 02:39:16;;;;;;;35.87;23.93;;;;;;;1.61;85.17;96469.00;4313469;32;20309;-54
2022/01/27 02:41:44;;;;;;;37.67;24.60;;;;;;;1.43;84.98;96471.50;4349277;32;20261;-53
2022/01/27 02:44:43;;;;;;;38.75;25.92;;;;;;;1.58;84.84;96468.62;4344574;32;20186;-56
2022/01/27 02:47:08;;;;;;;36.57;24.33;;;;;;;1.57;84.43;96467.00;4359900;32;20244;-53
2022/01/27 02:49:36;;;;;;;37.07;23.90;;;;;;;1.49;85.00;96470.66;4367154;32;20317;-55
2022/01/27 02:52:01;;;;;;;39.07;24.53;;;;;;;1.60;84.77;96466.59;4366403;32;20184;-55
2022/01/27 02:54:29;;;;;;;36.63;24.50;;;;;;;1.30;86.18;96471.53;4366272;32;20299;-53
2022/01/27 02:56:55;;;;;;;36.53;23.90;;;;;;;1.56;85.03;96475.84;4353160;32;20296;-54
2022/01/27 02:59:22;;;;;;;37.88;24.33;;;;;;;1.44;85.42;96478.34;4356620;32;20332;-54
2022/01/27 03:01:49;;;;;;;39.00;25.12;;;;;;;1.34;85.66;96478.75;4352148;32;20246;-51
2022/01/27 03:04:15;;;;;;;37.20;24.90;;;;;;;1.34;85.60;96477.94;4366439;32;20219;-54
2022/01/27 03:06:41;;;;;;;37.90;25.07;;;;;;;1.35;85.89;96469.09;4362723;32;20278;-55
2022/01/27 03:09:06;;;;;;;38.20;25.47;;;;;;;1.57;85.48;96475.66;4347156;32;20330;-53
2022/01/27 03:11:43;;;;;;;38.30;24.60;;;;;;;1.35;85.70;96469.91;4373737;32;20258;-55
2022/01/27 03:14:11;;;;;;;37.85;24.45;;;;;;;1.24;86.09;96456.69;4363432;32;20254;-56
2022/01/27 03:16:37;;;;;;;36.93;24.13;;;;;;;1.37;85.78;96457.44;4382736;32;20204;-57
2022/01/27 03:19:07;;;;;;;37.20;25.30;;;;;;;1.24;86.06;96461.91;4353342;32;20276;-55
2022/01/27 03:21:33;;;;;;;39.60;24.63;;;;;;;1.23;85.99;96455.88;4372647;32;20244;-57
2022/01/27 03:23:58;;;;;;;41.97;25.43;;;;;;;1.27;85.78;96451.81;4375569;32;20314;-54
2022/01/27 03:26:25;;;;;;;41.90;25.87;;;;;;;1.22;86.39;96449.06;4352624;32;20195;-54
2022/01/27 03:28:51;;;;;;;39.97;26.15;;;;;;;1.19;86.96;96446.03;4340509;32;20236;-57
2022/01/27 03:31:18;;;;;;;40.13;25.97;;;;;;;1.15;86.86;96437.00;4375626;32;20185;-56
2022/01/27 03:33:43;;;;;;;38.53;23.90;;;;;;;1.10;86.64;96442.84;4365564;32;20203;-55
2022/01/27 03:36:10;;;;;;;36.03;24.53;;;;;;;1.28;85.94;96439.56;4376116;32;20367;-57
2022/01/27 03:38:37;;;;;;;41.50;25.37;;;;;;;1.30;86.13;96445.38;4359441;32;20181;-56
2022/01/27 03:41:08;;;;;;;40.67;26.03;;;;;;;1.41;85.75;96446.56;4368426;32;20285;-54
2022/01/27 03:43:36;;;;;;;40.53;25.08;;;;;;;1.47;85.46;96451.75;4358199;32;20375;-57
2022/01/27 03:46:06;;;;;;;40.73;26.60;;;;;;;1.24;86.32;96451.47;4366684;32;20248;-55
2022/01/27 03:48:32;;;;;;;45.15;28.40;;;;;;;1.26;86.52;96445.00;4367187;32;20289;-57
2022/01/27 03:50:58;;;;;;;41.00;25.95;;;;;;;1.19;86.76;96428.56;4350675;32;20287;-57
2022/01/27 03:53:25;;;;;;;41.67;26.70;;;;;;;1.24;86.56;96438.41;4356504;32;20261;-56
2022/01/27 03:55:51;;;;;;;43.80;26.70;;;;;;;1.28;86.72;96442.19;4368265;32;20177;-57
2022/01/27 03:58:17;;;;;;;38.90;25.60;;;;;;;1.10;87.62;96445.47;4373554;32;20272;-51
2022/01/27 04:00:44;;;;;;;38.55;25.00;;;;;;;1.42;86.96;96442.94;4361844;32;20192;-55
2022/01/27 04:03:13;;;;;;;38.42;25.00;;;;;;;1.34;86.13;96457.84;4367657;32;20205;-56
2022/01/27 04:05:42;;;;;;;40.05;25.70;;;;;;;1.26;86.61;96460.69;4354237;32;20180;-53
2022/01/27 04:08:10;;;;;;;37.97;24.00;;;;;;;1.54;85.55;96459.56;4382962;32;20234;-55
2022/01/27 04:10:36;;;;;;;38.85;25.73;;;;;;;1.46;85.40;96460.59;4348674;32;20239;-54
2022/01/27 04:13:05;;;;;;;33.13;22.90;;;;;;;1.26;85.97;96446.81;4360430;32;20216;-54
2022/01/27 04:15:34;;;;;;;40.42;25.02;;;;;;;1.28;86.00;96442.97;4365353;32;20277;-53
2022/01/27 04:18:01;;;;;;;38.30;23.83;;;;;;;1.21;85.87;96439.63;4363986;32;20196;-50
2022/01/27 04:20:26;;;;;;;37.75;24.52;;;;;;;1.37;85.42;96438.34;4374288;32;20280;-53
2022/01/27 04:22:52;;;;;;;35.67;23.80;;;;;;;1.21;86.01;96421.31;4385629;32;20184;-55
2022/01/27 04:25:20;;;;;;;33.93;23.10;;;;;;;1.25;85.79;96421.69;4358332;32;20256;-52
2022/01/27 04:27:50;;;;;;;35.67;24.13;;;;;;;1.45;85.49;96413.78;4376004;32;20353;-52
2022/01/27 04:30:19;;;;;;;36.53;23.65;;;;;;;1.48;84.79;96416.75;4362000;32;20380;-55
2022/01/27 04:32:50;;;;;;;35.05;23.20;;;;;;;1.49;84.57;96417.56;4362258;32;20193;-57
2022/01/27 04:35:22;;;;;;;34.73;24.27;;;;;;;1.34;85.35;96417.84;4337517;32;20225;-53
2022/01/27 04:38:44;;;;;;;36.28;23.73;;;;;;;1.22;85.44;96415.09;4359200;32;20346;-55
2022/01/27 04:40:51;;;;;;;36.60;24.42;;;;;;;1.19;85.90;96420.72;4351925;32;20231;-56
2022/01/27 04:45:52;;;;;;;34.80;23.57;;;;;;;1.13;85.76;96407.66;4345334;32;20292;-52
2022/01/27 04:48:21;;;;;;;35.40;23.38;;;;;;;1.09;86.20;96399.44;4347267;32;20180;-54
2022/01/27 04:50:50;;;;;;;38.15;23.33;;;;;;;1.05;86.61;96390.41;4376611;32;20241;-51
2022/01/27 04:53:35;;;;;;;34.70;23.10;;;;;;;1.00;86.18;96396.28;4352916;32;20277;-55
2022/01/27 04:56:12;;;;;;;34.90;23.10;;;;;;;1.02;86.68;96388.22;4362323;32;20184;-56
2022/01/27 04:58:42;;;;;;;36.58;23.10;;;;;;;0.97;86.29;96388.03;4349044;32;20271;-55
2022/01/27 05:01:09;;;;;;;37.03;22.30;;;;;;;1.01;86.45;96386.63;4366916;32;20180;-57
2022/01/27 05:03:53;;;;;;;36.08;22.67;;;;;;;1.15;85.50;96388.16;4379119;32;20188;-56
2022/01/27 05:06:20;;;;;;;33.58;22.48;;;;;;;1.01;85.71;96386.63;4365041;32;20222;-55
2022/01/27 05:09:00;;;;;;;37.90;23.65;;;;;;;0.95;85.79;96384.84;4380301;32;20204;-56
2022/01/27 05:11:30;;;;;;;31.40;22.67;;;;;;;1.09;85.88;96385.56;4367786;32;20180;-56
2022/01/27 05:14:14;;;;;;;34.75;22.17;;;;;;;1.18;85.31;96395.59;4377633;32;20180;-55
2022/01/27 05:16:41;;;;;;;33.75;21.83;;;;;;;1.45;84.20;96385.03;4365964;32;20211;-55
2022/01/27 05:19:07;;;;;;;33.20;23.00;;;;;;;1.43;84.18;96373.97;4332843;32;20193;-57
2022/01/27 05:21:33;;;;;;;36.10;22.73;;;;;;;1.59;83.62;96373.47;4336035;32;20185;-54
2022/01/27 05:24:00;;;;;;;35.33;21.85;;;;;;;1.22;84.50;96375.88;4346328;32;20278;-55
2022/01/27 05:26:25;;;;;;;35.60;22.65;;;;;;;1.25;84.52;96369.41;4358304;32;20200;-55
2022/01/27 05:28:51;;;;;;;35.50;23.43;;;;;;;1.26;84.04;96369.22;4365738;32;20231;-55
2022/01/27 05:31:18;;;;;;;34.75;22.08;;;;;;;1.36;83.42;96368.78;4358950;32;20181;-55
2022/01/27 05:33:47;;;;;;;34.03;22.93;;;;;;;1.57;82.83;96359.81;4368218;32;20196;-55
2022/01/27 05:36:14;;;;;;;33.37;22.80;;;;;;;1.53;82.38;96356.81;4352208;32;20283;-56
2022/01/27 05:38:42;;;;;;;30.02;22.20;;;;;;;1.25;82.87;96356.34;4344053;32;20261;-55
2022/01/27 05:41:13;;;;;;;32.25;21.62;;;;;;;1.49;82.34;96355.63;4319092;32;20199;-56
2022/01/27 05:43:49;;;;;;;32.38;21.35;;;;;;;1.54;82.25;96360.22;4370750;32;20181;-54
2022/01/27 05:46:16;;;;;;;34.30;22.30;;;;;;;1.24;82.78;96360.00;4362947;32;20200;-56
2022/01/27 05:48:42;;;;;;;31.85;22.30;;;;;;;1.27;82.85;96349.91;4353743;32;20200;-54
2022/01/27 05:51:09;;;;;;;31.45;21.60;;;;;;;1.10;83.52;96350.59;4367028;32;20215;-54
2022/01/27 05:53:36;;;;;;;32.00;22.07;;;;;;;1.19;83.37;96344.16;4368844;32;20192;-54
2022/01/27 05:56:07;;;;;;;30.52;21.25;;;;;;;1.55;81.87;96348.75;4348539;32;20291;-54
2022/01/27 05:58:36;;;;;;;31.83;21.73;;;;;;;1.53;81.39;96350.78;4351476;32;20185;-54
2022/01/27 06:01:11;;;;;;;32.53;22.13;;;;;;;1.43;81.83;96355.69;4349171;32;20280;-55
2022/01/27 06:03:42;;;;;;;30.17;21.37;;;;;;;1.33;81.98;96358.72;4357498;32;20289;-62
2022/01/27 06:06:10;;;;;;;31.77;21.70;;;;;;;1.40;82.23;96350.87;4363437;32;20281;-56
2022/01/27 06:08:35;;;;;;;30.20;21.98;;;;;;;1.46;81.74;96342.97;4363584;32;20203;-56
2022/01/27 06:11:00;;;;;;;31.27;21.27;;;;;;;1.46;82.00;96350.00;4362681;32;20200;-57
2022/01/27 06:13:26;;;;;;;29.93;20.80;;;;;;;1.49;82.26;96345.16;4311467;32;20186;-57
2022/01/27 06:15:54;;;;;;;30.77;21.67;;;;;;;1.23;82.46;96356.59;4340090;32;21161;-56
2022/01/27 06:18:20;;;;;;;29.80;20.67;;;;;;;1.41;82.38;96353.28;4361452;32;20215;-55
2022/01/27 06:20:49;;;;;;;28.60;19.80;;;;;;;1.30;82.40;96340.84;4389124;32;20184;-56
2022/01/27 06:23:15;;;;;;;31.33;21.73;;;;;;;1.47;81.84;96333.31;4357570;32;20199;-56
2022/01/27 06:25:40;;;;;;;33.10;22.33;;;;;;;1.34;82.27;96324.56;4341740;32;20212;-57
2022/01/27 06:28:06;;;;;;;29.77;19.67;;;;;;;1.30;82.58;96320.75;4354650;32;20185;-55
2022/01/27 06:30:35;;;;;;;27.77;18.90;;;;;;;1.15;82.74;96333.31;4320615;32;20196;-53
2022/01/27 06:33:05;;;;;;;26.33;18.62;;;;;;;1.05;83.07;96340.78;4329813;32;20192;-57
2022/01/27 06:35:32;;;;;;;27.40;19.43;;;;;;;1.29;81.98;96340.06;4327888;32;20202;-57
2022/01/27 06:37:58;;;;;;;24.43;17.33;;;;;;;1.16;82.28;96349.78;4351717;32;20318;-56
2022/01/27 06:40:26;;;;;;;27.15;19.20;;;;;;;1.18;82.05;96340.72;4367912;32;20277;-55
2022/01/27 06:42:51;;;;;;;25.35;18.58;;;;;;;1.13;81.96;96337.94;4335579;32;20265;-56
2022/01/27 06:45:18;;;;;;;26.93;18.67;;;;;;;1.16;82.48;96352.41;4335746;32;20181;-57
2022/01/27 06:47:44;;;;;;;25.85;18.45;;;;;;;1.11;82.45;96349.59;4346715;32;20251;-56
2022/01/27 06:50:10;;;;;;;23.57;17.40;;;;;;;1.18;82.26;96342.53;4341941;32;20193;-57
2022/01/27 06:52:35;;;;;;;25.47;17.60;;;;;;;1.24;82.35;96342.50;4376557;32;20181;-57
2022/01/27 06:55:04;;;;;;;24.15;17.65;;;;;;;1.24;82.10;96346.94;4357152;32;20290;-57
2022/01/27 06:57:30;;;;;;;24.17;18.13;;;;;;;1.28;81.70;96337.66;4380044;32;20212;-53
2022/01/27 06:59:56;;;;;;;24.50;16.97;;;;;;;1.01;82.34;96340.41;4356372;32;20277;-56
2022/01/27 07:02:21;;;;;;;23.70;16.77;;;;;;;1.10;82.69;96338.34;4353777;32;20196;-57
2022/01/27 07:04:47;;;;;;;23.03;16.60;;;;;;;1.07;82.68;96340.56;4357992;32;20223;-56
2022/01/27 07:07:13;;;;;;;24.43;16.60;;;;;;;1.17;82.35;96331.28;4373862;32;20193;-55
2022/01/27 07:09:40;;;;;;;23.52;17.30;;;;;;;1.01;82.28;96331.78;4389215;32;20184;-56
2022/01/27 07:12:12;;;;;;;24.20;17.17;;;;;;;0.99;83.05;96320.72;4363245;32;20192;-57
2022/01/27 07:14:39;;;;;;;23.60;16.80;;;;;;;0.79;83.66;96338.28;4372040;32;20195;-56
2022/01/27 07:17:05;;;;;;;25.50;18.80;;;;;;;0.92;83.62;96338.22;4325613;32;20185;-56
2022/01/27 07:19:32;;;;;;;23.73;17.33;;;;;;;0.99;83.40;96325.94;4353861;32;20248;-56
2022/01/27 07:21:59;;;;;;;21.73;16.55;;;;;;;1.16;82.82;96323.66;4357852;32;20208;-57
2022/01/27 07:24:26;;;;;;;24.60;18.52;;;;;;;1.14;82.25;96325.66;4353224;32;20189;-57
2022/01/27 07:26:52;;;;;;;24.37;17.60;;;;;;;0.99;83.08;96329.38;4347873;32;20308;-54
2022/01/27 07:29:17;;;;;;;22.17;17.50;;;;;;;1.21;82.60;96331.69;4376539;32;20202;-55
2022/01/27 07:31:43;;;;;;;24.23;17.50;;;;;;;1.11;82.92;96326.09;4330037;32;20193;-57
2022/01/27 07:34:10;;;;;;;24.60;17.27;;;;;;;1.12;82.99;96327.69;4372786;32;20172;-58
2022/01/27 07:36:36;;;;;;;27.87;18.50;;;;;;;1.09;82.86;96321.06;4348810;32;20188;-52
2022/01/27 07:39:02;;;;;;;21.93;17.03;;;;;;;0.98;83.39;96325.16;4356720;32;20201;-53
2022/01/27 07:41:29;;;;;;;27.45;14.65;;;;;;;1.09;83.15;96322.88;4350994;32;20263;-53
2022/01/27 07:43:55;;;;;;;23.53;14.77;;;;;;;2.21;91.12;96322.88;4362798;32;20204;-47
2022/01/27 07:46:21;;;;;;;18.20;15.37;;;;;;;2.95;90.51;96318.47;4333247;32;20324;-53
2022/01/27 07:48:46;;;;;;;23.13;15.27;;;;;;;3.25;84.62;96316.66;4359790;32;20218;-54
2022/01/27 07:51:12;;;;;;;20.27;14.10;;;;;;;3.85;83.83;96313.97;4350772;32;20181;-61
2022/01/27 07:53:39;;;;;;;20.50;14.17;;;;;;;4.04;78.50;96317.31;4372661;32;20263;-54
2022/01/27 07:56:07;;;;;;;20.93;15.13;;;;;;;4.33;76.65;96316.41;4336063;32;20335;-52
2022/01/27 07:58:32;;;;;;;20.17;14.63;;;;;;;4.60;76.74;96315.91;4342579;32;20280;-52
2022/01/27 08:00:58;;;;;;;19.70;14.33;;;;;;;4.84;76.39;96315.66;4333586;32;21836;-51
2022/01/27 08:03:25;;;;;;;18.87;14.40;;;;;;;4.80;71.77;96317.13;4350908;32;20193;-56
2022/01/27 08:05:51;;;;;;;17.40;14.20;;;;;;;5.14;71.04;96322.56;4347644;32;20343;-54
2022/01/27 08:08:18;;;;;;;17.03;14.17;;;;;;;5.39;70.55;96320.41;4356564;32;20300;-54
2022/01/27 08:10:45;;;;;;;20.70;14.87;;;;;;;5.45;68.80;96324.72;4325439;32;20282;-55
2022/01/27 08:13:11;;;;;;;17.37;12.63;;;;;;;5.56;69.19;96317.00;4339635;32;20362;-54
2022/01/27 08:15:38;;;;;;;20.20;14.20;;;;;;;5.63;67.36;96315.00;4353949;32;20304;-53
2022/01/27 08:18:04;;;;;;;17.80;13.13;;;;;;;5.73;67.53;96317.81;4369376;32;20315;-55
2022/01/27 08:20:33;;;;;;;18.67;13.47;;;;;;;5.72;67.08;96314.41;4351466;32;20358;-58
2022/01/27 08:22:59;;;;;;;14.77;12.03;;;;;;;4.46;66.06;96324.06;4334586;32;20379;-56
2022/01/27 08:25:25;;;;;;;15.50;11.57;;;;;;;3.39;69.08;96325.94;4338679;32;20399;-56
2022/01/27 08:27:55;;;;;;;21.70;11.90;;;;;;;3.25;69.38;96326.34;4342212;32;20363;-56
2022/01/27 08:30:25;;;;;;;14.53;11.97;;;;;;;2.64;72.03;96333.34;4318246;32;20327;-58
2022/01/27 08:32:58;;;;;;;15.70;12.63;;;;;;;2.63;72.66;96321.25;4345304;32;20287;-58
2022/01/27 08:35:27;;;;;;;14.60;12.27;;;;;;;2.52;73.69;96327.19;4332417;32;20287;-56
2022/01/27 08:37:56;;;;;;;15.03;11.73;;;;;;;2.52;73.96;96321.97;4326235;32;20288;-58
2022/01/27 08:40:22;;;;;;;16.97;12.47;;;;;;;2.44;73.72;96311.78;4352001;32;20321;-58
2022/01/27 08:42:49;;;;;;;13.03;11.57;;;;;;;2.54;73.22;96311.28;4356683;32;20370;-58
2022/01/27 08:45:18;;;;;;;11.87;10.47;;;;;;;2.62;72.49;96311.00;4315997;32;20289;-58
2022/01/27 08:47:46;;;;;;;15.13;11.37;;;;;;;2.57;72.28;96303.78;4370709;32;20281;-58
2022/01/27 08:50:13;;;;;;;15.07;11.80;;;;;;;2.59;72.46;96314.84;4336382;32;20320;-58
2022/01/27 08:52:44;;;;;;;15.90;11.13;;;;;;;2.80;72.50;96320.66;4360651;32;20281;-57
2022/01/27 08:55:21;;;;;;;18.10;11.90;;;;;;;3.05;71.08;96314.31;4347175;32;20277;-56
2022/01/27 08:57:47;;;;;;;13.03;10.67;;;;;;;2.97;71.50;96313.81;4361862;32;20268;-58
2022/01/27 09:00:16;;;;;;;20.67;13.30;;;;;;;3.33;69.72;96311.09;4355265;32;20141;-58
2022/01/27 09:02:42;;;;;;;14.77;11.60;;;;;;;3.17;70.46;96310.94;4351828;32;20185;-58
2022/01/27 09:05:08;;;;;;;15.23;9.70;;;;;;;3.15;70.21;96313.78;4374276;32;20280;-58
2022/01/27 09:07:34;;;;;;;11.90;9.20;;;;;;;3.36;69.13;96313.28;4364738;32;20204;-58
2022/01/27 09:10:00;;;;;;;10.97;8.80;;;;;;;3.67;67.45;96306.19;4354150;32;20294;-54
2022/01/27 09:12:25;;;;;;;8.73;7.67;;;;;;;3.99;65.71;96304.06;4368343;32;20300;-57
2022/01/27 09:14:51;;;;;;;7.83;6.90;;;;;;;4.08;64.72;96308.75;4355458;32;20269;-58
2022/01/27 09:17:17;;;;;;;7.93;6.37;;;;;;;3.78;64.43;96302.78;4362041;32;20298;-57
2022/01/27 09:19:45;;;;;;;8.90;6.47;;;;;;;3.86;64.49;96299.84;4373665;32;20254;-58
2022/01/27 09:22:14;;;;;;;10.00;5.90;;;;;;;4.08;63.64;96298.25;4363145;32;20208;-57
2022/01/27 09:25:21;;;;;;;7.33;5.70;;;;;;;4.24;63.09;96303.84;4364175;32;20276;-58
2022/01/27 09:27:36;;;;;;;7.23;5.83;;;;;;;4.29;61.97;96294.25;4378277;32;20292;-58
2022/01/27 09:30:04;;;;;;;8.87;5.83;;;;;;;4.42;61.63;96285.34;4364190;32;20285;-56
2022/01/27 09:32:30;;;;;;;10.03;5.97;;;;;;;4.48;61.90;96287.03;4365175;32;20306;-58
2022/01/27 09:34:56;;;;;;;9.93;5.77;;;;;;;4.68;60.45;96282.22;4362358;32;20335;-58
2022/01/27 09:37:22;;;;;;;8.90;5.83;;;;;;;4.72;60.85;96291.22;4360485;32;20303;-58
2022/01/27 09:39:48;;;;;;;8.03;5.27;;;;;;;4.76;61.23;96283.69;4362414;32;20183;-58
2022/01/27 09:42:14;;;;;;;5.70;5.10;;;;;;;4.89;60.30;96280.00;4347546;32;20219;-58
2022/01/27 09:44:42;;;;;;;5.60;5.10;;;;;;;5.01;60.02;96288.63;4375677;32;20284;-58
2022/01/27 09:47:13;;;;;;;6.00;4.90;;;;;;;5.18;59.76;96276.34;4359669;32;20288;-58
2022/01/27 09:49:49;;;;;;;5.10;4.60;;;;;;;5.31;58.67;96280.50;4361660;32;20325;-65
2022/01/27 09:52:15;;;;;;;5.93;4.53;;;;;;;5.17;58.26;96280.00;4367183;32;20283;-58
2022/01/27 09:54:41;;;;;;;4.83;4.13;;;;;;;5.38;57.82;96276.72;4361612;32;20328;-58
2022/01/27 09:57:07;;;;;;;6.73;4.33;;;;;;;5.45;56.77;96274.72;4342073;32;20285;-58
2022/01/27 09:59:32;;;;;;;6.20;3.60;;;;;;;5.62;55.90;96274.72;4362953;32;20272;-58
2022/01/27 10:02:06;;;;;;;6.50;3.70;;;;;;;5.80;55.08;96263.19;4351747;32;20349;-57
2022/01/27 10:04:57;;;;;;;4.83;3.83;;;;;;;5.67;55.12;96274.03;4350486;32;20192;-58
2022/01/27 10:07:27;;;;;;;4.10;3.80;;;;;;;5.78;54.85;96260.00;4363553;32;20299;-58
2022/01/27 10:10:00;;;;;;;5.87;2.97;;;;;;;5.85;55.22;96258.00;4366666;32;20276;-57
2022/01/27 10:12:37;;;;;;;2.80;2.50;;;;;;;6.00;53.29;96253.00;4375435;32;20286;-56
2022/01/27 10:15:12;;;;;;;4.33;2.40;;;;;;;6.27;51.95;96247.03;4366067;32;20276;-57
2022/01/27 10:17:58;;;;;;;5.30;2.57;;;;;;;6.20;50.78;96232.22;4364362;32;20279;-56
2022/01/27 10:20:24;;;;;;;2.93;2.17;;;;;;;6.29;50.81;96239.69;4356094;32;20303;-57
2022/01/27 10:23:09;;;;;;;3.23;2.17;;;;;;;6.39;50.46;96239.84;4367039;32;20276;-58
2022/01/27 10:25:46;;;;;;;4.53;2.77;;;;;;;6.57;50.24;96239.53;4383547;32;20188;-58
2022/01/27 10:31:08;;;;;;;1.93;1.67;;;;;;;6.62;49.07;96246.72;4377312;32;20296;-57
2022/01/27 10:34:01;;;;;;;1.90;1.80;;;;;;;6.96;47.95;96234.19;4355436;32;20284;-55
2022/01/27 10:36:30;;;;;;;1.90;1.80;;;;;;;6.99;47.13;96225.78;4358470;32;20322;-57
2022/01/27 10:39:11;;;;;;;3.83;2.30;;;;;;;7.14;46.96;96231.22;4370016;32;20362;-58
2022/01/27 10:41:54;;;;;;;5.80;2.43;;;;;;;7.16;46.96;96216.72;4369681;32;20284;-57
2022/01/27 10:44:19;;;;;;;5.23;1.97;;;;;;;7.10;47.27;96224.84;4371425;32;20284;-57
2022/01/27 10:47:01;;;;;;;6.43;1.83;;;;;;;7.40;46.41;96225.12;4353627;32;20367;-56
2022/01/27 10:49:35;;;;;;;7.57;1.90;;;;;;;7.58;46.83;96216.03;4384320;32;20215;-56
2022/01/27 10:52:00;;;;;;;8.73;2.27;;;;;;;7.50;46.95;96213.84;4381491;32;20279;-58
2022/01/27 10:54:47;;;;;;;2.87;2.30;;;;;;;7.53;46.59;96219.44;4376453;32;20299;-57
2022/01/27 10:57:13;;;;;;;5.07;2.57;;;;;;;7.80;45.65;96223.88;4357663;32;20204;-58
2022/01/27 10:59:42;;;;;;;2.13;1.90;;;;;;;7.96;45.69;96216.84;4372100;32;20284;-58
2022/01/27 11:02:10;;;;;;;2.13;1.93;;;;;;;7.99;45.67;96216.34;4362923;32;20208;-58
2022/01/27 11:04:41;;;;;;;2.00;1.80;;;;;;;8.09;44.44;96216.44;4375322;32;20284;-57
2022/01/27 11:07:12;;;;;;;2.87;1.77;;;;;;;8.24;43.33;96216.50;4368136;32;20308;-56
2022/01/27 11:09:42;;;;;;;4.20;2.00;;;;;;;8.12;43.98;96211.41;4365494;32;20280;-57
2022/01/27 11:12:13;;;;;;;2.87;2.17;;;;;;;8.07;43.56;96218.53;4371361;32;20295;-57
2022/01/27 11:14:39;;;;;;;2.67;1.87;;;;;;;8.19;44.49;96211.97;4373253;32;20287;-55
2022/01/27 11:17:06;;;;;;;3.73;1.87;;;;;;;8.37;43.81;96192.28;4363913;32;20285;-54
2022/01/27 11:22:07;;;;;;;3.27;1.97;;;;;;;8.57;45.72;96194.22;4367456;32;20453;-57
2022/01/27 11:27:23;;;;;;;6.87;2.20;;;;;;;8.71;42.20;96181.31;4364613;32;20341;-56
2022/01/27 11:29:57;;;;;;;2.23;2.03;;;;;;;8.59;43.02;96179.69;4379320;32;20339;-55
2022/01/27 11:32:36;;;;;;;2.83;1.87;;;;;;;8.72;40.86;96170.47;4356667;32;20363;-57
2022/01/27 11:35:14;;;;;;;3.67;2.13;;;;;;;8.63;40.87;96179.16;4373055;32;20292;-55
2022/01/27 11:37:41;;;;;;;3.47;1.77;;;;;;;8.66;40.59;96158.28;4381844;32;20335;-57
2022/01/27 11:40:09;;;;;;;3.77;3.33;;;;;;;8.63;41.82;96169.38;4364331;32;20337;-56
2022/01/27 11:42:34;;;;;;;2.97;2.30;;;;;;;8.52;41.61;96162.47;4363418;32;20284;-58
2022/01/27 11:45:20;;;;;;;2.53;1.57;;;;;;;8.78;42.14;96163.34;4370026;32;20307;-58
2022/01/27 11:47:50;;;;;;;4.17;1.63;;;;;;;8.74;41.40;96159.63;4363546;32;20298;-57
2022/01/27 11:50:35;;;;;;;2.43;1.83;;;;;;;8.81;41.89;96154.88;4359962;32;20284;-55
2022/01/27 11:53:06;;;;;;;2.13;1.70;;;;;;;8.56;41.39;96142.38;4372729;32;20291;-56
2022/01/27 11:55:34;;;;;;;2.40;1.80;;;;;;;8.47;40.28;96154.53;4377451;32;20285;-54
2022/01/27 11:58:12;;;;;;;1.70;1.60;;;;;;;8.55;40.79;96154.81;4354453;32;20311;-56
2022/01/27 12:00:39;;;;;;;2.30;2.10;;;;;;;8.62;41.58;96149.28;4348747;32;20327;-56
2022/01/27 12:03:12;;;;;;;2.67;2.00;;;;;;;8.44;42.58;96149.75;4376756;32;20304;-55
2022/01/27 12:05:45;;;;;;;2.10;1.90;;;;;;;8.63;42.81;96142.94;4345544;32;20329;-64
2022/01/27 12:08:22;;;;;;;2.00;1.87;;;;;;;8.64;43.59;96144.53;4345960;32;20293;-56
2022/01/27 12:11:00;;;;;;;5.00;2.33;;;;;;;8.46;43.33;96140.50;4354999;32;20284;-56
2022/01/27 12:13:55;;;;;;;2.30;2.10;;;;;;;8.63;43.32;96137.66;4341890;32;20285;-57
2022/01/27 12:19:13;;;;;;;3.63;2.30;;;;;;;8.51;43.75;96137.09;4325804;32;20381;-53
2022/01/27 12:21:51;;;;;;;2.03;1.93;;;;;;;8.61;42.93;96145.84;4334563;32;20303;-55
2022/01/27 12:24:27;;;;;;;3.10;2.30;;;;;;;8.61;42.55;96134.47;4335741;32;20285;-55
2022/01/27 12:27:21;;;;;;;2.77;2.33;;;;;;;8.71;43.11;96139.00;4332132;32;20344;-55